Time;durP1;ratioP1;P1;durP2;ratioP2;P2;SDS_P1;SDS_P2;PMS_P1;PMS_P2;Temp;Humidity;BMP_temperature;BMP_pressure;BME280_temperature;BME280_humidity;BME280_pressure;Samples;Min_cycle;Max_cycle;Signal;HPM_P1;HPM_P2
2021/09/10 00:01:22;;;;;;;;;;;;;;;24.59;42.43;100843.66;4970939;28;98960;-75
2021/09/10 00:03:48;;;;;;;;;;;;;;;24.69;42.03;100835.53;4969145;28;99023;-75
2021/09/10 00:06:15;;;;;;;;;;;;;;;24.48;42.13;100840.25;4968592;28;96798;-77
2021/09/10 00:08:41;;;;;;;;;;;;;;;24.55;42.13;100841.38;4971534;28;96835;-76
2021/09/10 00:11:08;;;;;;;;;;;;;;;24.43;42.50;100837.09;4968700;28;98981;-75
2021/09/10 00:13:34;;;;;;;;;;;;;;;24.39;42.78;100841.09;4963412;28;98158;-75
2021/09/10 00:16:00;;;;;;;;;;;;;;;24.27;42.84;100844.91;4968275;28;96913;-76
2021/09/10 00:18:29;;;;;;;;;;;;;;;24.37;42.99;100840.38;4962137;28;97163;-76
2021/09/10 00:20:55;;;;;;;;;;;;;;;24.56;42.56;100846.63;4969385;28;99341;-76
2021/09/10 00:23:23;;;;;;;;;;;;;;;24.55;42.44;100841.38;4970783;28;99199;-76
2021/09/10 00:25:49;;;;;;;;;;;;;;;24.44;42.88;100846.91;4969782;28;96892;-75
2021/09/10 00:28:15;;;;;;;;;;;;;;;24.38;43.06;100840.25;4970097;28;96920;-75
2021/09/10 00:30:41;;;;;;;;;;;;;;;24.47;42.91;100847.50;4969270;28;99572;-76
2021/09/10 00:33:07;;;;;;;;;;;;;;;24.33;44.45;100838.97;4968863;28;99519;-76
2021/09/10 00:35:35;;;;;;;;;;;;;;;24.30;44.06;100842.78;4971779;28;96790;-76
2021/09/10 00:38:01;;;;;;;;;;;;;;;24.56;43.41;100843.09;4971621;28;96999;-76
2021/09/10 00:40:28;;;;;;;;;;;;;;;24.40;44.20;100837.41;4974415;28;98800;-77
2021/09/10 00:42:54;;;;;;;;;;;;;;;24.35;44.72;100835.09;4973982;28;99290;-76
2021/09/10 00:45:20;;;;;;;;;;;;;;;24.38;44.67;100842.94;4972727;28;97290;-75
2021/09/10 00:47:46;;;;;;;;;;;;;;;24.33;44.10;100845.22;4970090;28;96951;-75
2021/09/10 00:50:13;;;;;;;;;;;;;;;24.38;44.46;100842.09;4966307;28;99366;-77
2021/09/10 00:52:41;;;;;;;;;;;;;;;24.39;44.33;100841.94;4970968;28;97744;-76
2021/09/10 00:55:07;;;;;;;;;;;;;;;24.33;44.43;100833.56;4968487;28;97359;-76
2021/09/10 00:57:34;;;;;;;;;;;;;;;24.29;44.86;100840.22;4969321;28;97144;-77
2021/09/10 01:00:00;;;;;;;;;;;;;;;24.16;44.51;100844.00;4968869;28;98452;-77
2021/09/10 01:02:26;;;;;;;;;;;;;;;24.15;44.62;100846.88;4972949;28;98837;-76
2021/09/10 01:04:52;;;;;;;;;;;;;;;24.07;44.95;100842.16;4972044;28;96851;-76
2021/09/10 01:07:19;;;;;;;;;;;;;;;24.03;44.69;100847.94;4973792;28;96830;-76
2021/09/10 01:09:46;;;;;;;;;;;;;;;23.96;44.67;100836.84;4980956;28;98119;-77
2021/09/10 01:12:13;;;;;;;;;;;;;;;24.00;44.56;100846.41;4976527;28;98240;-76
2021/09/10 01:14:40;;;;;;;;;;;;;;;23.76;45.44;100838.63;4972116;28;97538;-76
2021/09/10 01:17:06;;;;;;;;;;;;;;;23.92;45.10;100839.97;4969174;28;96905;-76
2021/09/10 01:19:33;;;;;;;;;;;;;;;23.90;45.23;100840.09;4968924;28;99444;-76
2021/09/10 01:22:00;;;;;;;;;;;;;;;23.95;45.20;100850.50;4973274;28;99711;-77
2021/09/10 01:24:29;;;;;;;;;;;;;;;23.88;45.23;100852.91;4974368;28;97664;-76
2021/09/10 01:26:55;;;;;;;;;;;;;;;23.91;45.43;100841.81;4976774;28;98520;-75
2021/09/10 01:29:22;;;;;;;;;;;;;;;23.95;45.05;100840.56;4973124;28;99297;-76
2021/09/10 01:31:48;;;;;;;;;;;;;;;23.39;46.63;100850.94;4975497;28;98804;-75
2021/09/10 01:34:15;;;;;;;;;;;;;;;23.58;45.98;100851.06;4976347;28;97123;-76
2021/09/10 01:36:41;;;;;;;;;;;;;;;23.82;45.44;100848.06;4976911;28;96884;-76
2021/09/10 01:39:07;;;;;;;;;;;;;;;23.64;46.16;100849.66;4965086;28;98456;-77
2021/09/10 01:41:35;;;;;;;;;;;;;;;23.37;46.72;100842.97;4973061;28;98921;-76
2021/09/10 01:44:01;;;;;;;;;;;;;;;23.74;45.97;100851.44;4974314;28;97104;-76
2021/09/10 01:46:27;;;;;;;;;;;;;;;23.82;45.85;100850.75;4975274;28;99029;-76
2021/09/10 01:48:53;;;;;;;;;;;;;;;23.63;46.12;100853.38;4980113;28;98857;-76
2021/09/10 01:51:27;;;;;;;;;;;;;;;23.52;46.50;100848.91;4976909;28;97994;-76
2021/09/10 01:53:54;;;;;;;;;;;;;;;23.65;46.32;100845.97;4974877;28;96943;-76
2021/09/10 01:56:20;;;;;;;;;;;;;;;23.23;47.39;100846.03;4977783;28;97541;-76
2021/09/10 01:58:48;;;;;;;;;;;;;;;23.52;46.96;100850.75;4975532;28;99410;-76
2021/09/10 02:01:14;;;;;;;;;;;;;;;23.77;46.28;100844.88;4975924;28;98877;-76
2021/09/10 02:03:40;;;;;;;;;;;;;;;23.67;46.41;100850.25;4976499;28;96773;-77
2021/09/10 02:06:06;;;;;;;;;;;;;;;23.67;46.41;100849.41;4976034;28;98060;-76
2021/09/10 02:08:33;;;;;;;;;;;;;;;23.72;46.38;100853.41;4975055;28;98943;-76
2021/09/10 02:10:59;;;;;;;;;;;;;;;23.46;47.07;100852.13;4976164;28;99089;-76
2021/09/10 02:13:25;;;;;;;;;;;;;;;23.41;47.38;100852.53;4973916;28;97544;-76
2021/09/10 02:15:53;;;;;;;;;;;;;;;23.54;46.98;100846.94;4975633;28;96927;-76
2021/09/10 02:18:19;;;;;;;;;;;;;;;23.58;46.89;100850.22;4975114;28;99612;-76
2021/09/10 02:20:46;;;;;;;;;;;;;;;23.64;47.08;100849.66;4974828;28;99024;-76
2021/09/10 02:23:12;;;;;;;;;;;;;;;23.59;47.06;100846.53;4974316;28;96865;-77
2021/09/10 02:25:38;;;;;;;;;;;;;;;23.57;46.91;100852.03;4973670;28;97813;-76
2021/09/10 02:28:04;;;;;;;;;;;;;;;23.63;46.84;100845.28;4974898;28;101961;-75
2021/09/10 02:30:31;;;;;;;;;;;;;;;23.63;47.01;100846.09;4973396;28;99167;-75
2021/09/10 02:32:58;;;;;;;;;;;;;;;23.65;46.89;100845.97;4972935;28;97624;-77
2021/09/10 02:35:25;;;;;;;;;;;;;;;23.60;46.93;100842.84;4973074;28;96870;-76
2021/09/10 02:37:51;;;;;;;;;;;;;;;23.58;47.32;100851.06;4971966;28;99340;-76
2021/09/10 02:40:17;;;;;;;;;;;;;;;23.57;47.89;100853.88;4972976;28;98905;-76
2021/09/10 02:42:43;;;;;;;;;;;;;;;23.50;48.58;100847.34;4971574;28;96918;-76
2021/09/10 02:45:10;;;;;;;;;;;;;;;23.49;47.99;100843.81;4963472;28;98081;-75
2021/09/10 02:47:37;;;;;;;;;;;;;;;23.44;48.15;100846.00;4965335;28;98212;-76
2021/09/10 02:50:05;;;;;;;;;;;;;;;23.39;48.03;100838.31;4970113;28;98918;-75
2021/09/10 02:52:33;;;;;;;;;;;;;;;23.35;47.93;100844.97;4971016;28;96817;-75
2021/09/10 02:54:59;;;;;;;;;;;;;;;23.34;47.90;100845.97;4972361;28;97145;-75
2021/09/10 02:57:26;;;;;;;;;;;;;;;23.10;48.57;100848.09;4970092;28;99289;-75
2021/09/10 02:59:52;;;;;;;;;;;;;;;23.14;48.31;100851.38;4971702;28;99182;-75
2021/09/10 03:02:18;;;;;;;;;;;;;;;22.84;49.50;100855.69;4971507;28;96983;-75
2021/09/10 03:04:47;;;;;;;;;;;;;;;23.13;48.88;100844.25;4974435;28;97104;-75
2021/09/10 03:07:15;;;;;;;;;;;;;;;23.33;48.25;100844.25;4971910;28;99176;-76
2021/09/10 03:09:41;;;;;;;;;;;;;;;23.30;48.24;100839.09;4972299;28;99206;-77
2021/09/10 03:12:07;;;;;;;;;;;;;;;23.27;48.68;100836.69;4970399;28;97907;-77
2021/09/10 03:14:34;;;;;;;;;;;;;;;23.11;48.77;100841.69;4971703;28;99005;-77
2021/09/10 03:17:00;;;;;;;;;;;;;;;22.94;49.28;100843.16;4971061;28;98985;-77
2021/09/10 03:19:27;;;;;;;;;;;;;;;22.94;49.42;100836.91;4970342;28;100882;-76
2021/09/10 03:21:53;;;;;;;;;;;;;;;22.84;49.84;100839.50;4969389;28;99688;-76
2021/09/10 03:24:21;;;;;;;;;;;;;;;22.91;49.59;100835.31;4971930;28;97029;-76
2021/09/10 03:26:49;;;;;;;;;;;;;;;22.89;49.75;100837.31;4974948;28;98984;-74
2021/09/10 03:32:02;;;;;;;;;;;;;;;23.05;49.34;100831.44;4927330;28;96988;-76
2021/09/10 03:34:33;;;;;;;;;;;;;;;22.92;49.58;100836.16;4970310;28;97106;-76
2021/09/10 03:37:00;;;;;;;;;;;;;;;23.01;50.00;100840.78;4971944;28;98160;-76
2021/09/10 03:39:27;;;;;;;;;;;;;;;23.02;49.76;100840.66;4971373;28;98929;-76
2021/09/10 03:41:54;;;;;;;;;;;;;;;23.01;50.11;100838.09;4970326;28;96915;-77
2021/09/10 03:44:20;;;;;;;;;;;;;;;23.03;49.65;100839.69;4969748;28;97111;-76
2021/09/10 03:46:46;;;;;;;;;;;;;;;23.01;49.59;100830.00;4968569;28;99163;-76
2021/09/10 03:49:13;;;;;;;;;;;;;;;22.65;50.62;100834.81;4970593;28;99122;-76
2021/09/10 03:51:39;;;;;;;;;;;;;;;22.82;50.18;100836.13;4970677;28;96858;-75
2021/09/10 03:54:05;;;;;;;;;;;;;;;22.73;50.54;100844.13;4969073;28;96918;-75
2021/09/10 03:56:33;;;;;;;;;;;;;;;22.93;50.05;100844.13;4971472;28;99065;-77
2021/09/10 03:58:59;;;;;;;;;;;;;;;22.98;49.84;100841.03;4971252;28;99002;-75
2021/09/10 04:01:25;;;;;;;;;;;;;;;22.66;50.50;100849.13;4969435;28;96947;-77
2021/09/10 04:03:51;;;;;;;;;;;;;;;22.87;50.20;100849.19;4971706;28;96877;-77
2021/09/10 04:06:18;;;;;;;;;;;;;;;22.95;50.11;100841.31;4971316;28;98942;-76
2021/09/10 04:08:44;;;;;;;;;;;;;;;22.90;50.09;100847.09;4968810;28;98051;-76
2021/09/10 04:11:10;;;;;;;;;;;;;;;22.80;50.65;100848.84;4962359;28;97186;-74
2021/09/10 04:13:38;;;;;;;;;;;;;;;22.97;49.86;100860.91;4968651;28;98919;-76
2021/09/10 04:16:04;;;;;;;;;;;;;;;23.07;49.55;100856.44;4970961;28;100711;-75
2021/09/10 04:18:30;;;;;;;;;;;;;;;22.88;50.11;100850.91;4958636;28;99165;-76
2021/09/10 04:20:57;;;;;;;;;;;;;;;22.74;50.70;100859.28;4957503;28;97017;-76
2021/09/10 04:23:23;;;;;;;;;;;;;;;22.59;51.19;100862.25;4970187;28;96932;-76
2021/09/10 04:25:49;;;;;;;;;;;;;;;22.52;51.58;100863.75;4971040;28;99489;-76
2021/09/10 04:28:16;;;;;;;;;;;;;;;22.88;50.80;100867.06;4969860;28;98913;-74
2021/09/10 04:30:43;;;;;;;;;;;;;;;22.85;50.84;100867.31;4971785;28;96783;-74
2021/09/10 04:33:09;;;;;;;;;;;;;;;23.00;50.12;100872.25;4969470;28;96853;-76
2021/09/10 04:35:36;;;;;;;;;;;;;;;23.00;50.27;100871.41;4968794;28;99064;-76
2021/09/10 04:38:02;;;;;;;;;;;;;;;22.91;50.58;100872.19;4970631;28;99146;-77
2021/09/10 04:40:28;;;;;;;;;;;;;;;22.95;50.50;100869.13;4968841;28;97089;-75
2021/09/10 04:42:54;;;;;;;;;;;;;;;23.04;50.14;100872.84;4969609;28;96849;-75
2021/09/10 04:45:22;;;;;;;;;;;;;;;22.98;50.48;100876.06;4969298;28;98954;-75
2021/09/10 04:47:50;;;;;;;;;;;;;;;23.06;50.28;100887.06;4970417;28;98986;-76
2021/09/10 04:50:16;;;;;;;;;;;;;;;23.00;50.36;100888.44;4970092;28;96962;-75
2021/09/10 04:52:42;;;;;;;;;;;;;;;23.03;50.53;100881.94;4967857;28;97268;-75
2021/09/10 04:55:09;;;;;;;;;;;;;;;23.03;50.29;100890.88;4971210;28;98919;-75
2021/09/10 04:57:36;;;;;;;;;;;;;;;23.10;50.40;100884.97;4957215;28;99130;-75
2021/09/10 05:00:03;;;;;;;;;;;;;;;22.94;50.89;100891.66;4970353;28;98471;-74
2021/09/10 05:02:29;;;;;;;;;;;;;;;22.88;50.90;100886.78;4969594;28;96931;-75
2021/09/10 05:04:57;;;;;;;;;;;;;;;23.14;50.70;100889.97;4972139;28;99086;-77
2021/09/10 05:07:23;;;;;;;;;;;;;;;23.19;50.56;100889.56;4970188;28;99919;-77
2021/09/10 05:09:50;;;;;;;;;;;;;;;23.22;50.37;100892.84;4970587;28;96820;-77
2021/09/10 05:12:16;;;;;;;;;;;;;;;23.33;50.31;100890.06;4968836;28;96887;-76
2021/09/10 05:14:42;;;;;;;;;;;;;;;23.41;49.83;100887.56;4971701;28;99517;-77
2021/09/10 05:17:10;;;;;;;;;;;;;;;23.43;49.89;100888.28;4962521;28;98914;-77
2021/09/10 05:19:36;;;;;;;;;;;;;;;23.51;49.90;100889.50;4960785;28;97526;-78
2021/09/10 05:22:04;;;;;;;;;;;;;;;23.50;49.92;100890.50;4970439;28;97787;-75
2021/09/10 05:24:31;;;;;;;;;;;;;;;23.47;49.83;100890.72;4960544;28;99366;-75
2021/09/10 05:26:57;;;;;;;;;;;;;;;23.59;50.03;100889.69;4968032;28;98905;-77
2021/09/10 05:29:23;;;;;;;;;;;;;;;23.66;49.66;100890.84;4966632;28;97017;-76
2021/09/10 05:31:49;;;;;;;;;;;;;;;23.74;49.49;100894.59;4970350;28;97087;-76
2021/09/10 05:34:16;;;;;;;;;;;;;;;23.74;49.70;100886.50;4968869;28;99882;-77
2021/09/10 05:36:42;;;;;;;;;;;;;;;23.61;49.79;100895.81;4969097;28;99103;-75
2021/09/10 05:39:08;;;;;;;;;;;;;;;;;;4969726;28;96856;-75
2021/09/10 05:41:35;;;;;;;;;;;;;;;23.74;49.67;100900.00;4968205;28;96941;-77
2021/09/10 05:44:02;;;;;;;;;;;;;;;23.80;49.72;100909.38;4974429;28;99290;-76
2021/09/10 05:46:28;;;;;;;;;;;;;;;23.91;49.53;100906.56;4973580;28;99027;-76
2021/09/10 05:48:54;;;;;;;;;;;;;;;23.91;49.58;100911.97;4964675;28;97866;-79
2021/09/10 05:51:21;;;;;;;;;;;;;;;23.95;49.72;100908.03;4967909;28;96838;-77
2021/09/10 05:53:47;;;;;;;;;;;;;;;24.03;49.52;100916.28;4969306;28;99215;-77
2021/09/10 05:56:14;;;;;;;;;;;;;;;24.02;49.80;100920.00;4968996;28;98789;-76
2021/09/10 05:58:41;;;;;;;;;;;;;;;24.13;49.70;100921.72;4968605;28;96885;-76
2021/09/10 06:01:07;;;;;;;;;;;;;;;24.16;49.47;100916.91;4967384;28;96910;-77
2021/09/10 06:03:34;;;;;;;;;;;;;;;24.19;49.33;100921.22;4963898;28;99368;-76
2021/09/10 06:06:00;;;;;;;;;;;;;;;24.11;49.72;100910.19;4964804;28;99145;-74
2021/09/10 06:08:26;;;;;;;;;;;;;;;24.37;48.84;100911.44;4961154;28;97239;-76
2021/09/10 06:10:53;;;;;;;;;;;;;;;24.49;48.86;100914.88;4962095;28;97647;-75
2021/09/10 06:13:19;;;;;;;;;;;;;;;24.27;49.48;100917.81;4963878;28;97761;-75
2021/09/10 06:15:47;;;;;;;;;;;;;;;24.56;48.76;100918.72;4969737;28;98887;-75
2021/09/10 06:18:13;;;;;;;;;;;;;;;24.53;48.82;100924.41;4968312;28;97163;-74
2021/09/10 06:20:40;;;;;;;;;;;;;;;24.58;48.60;100920.31;4969003;28;97361;-75
2021/09/10 06:23:06;;;;;;;;;;;;;;;24.80;48.57;100930.00;4971724;28;99163;-75
2021/09/10 06:25:32;;;;;;;;;;;;;;;24.92;48.30;100934.31;4969841;28;97681;-75
2021/09/10 06:27:59;;;;;;;;;;;;;;;24.96;48.04;100924.91;4969721;28;96969;-74
2021/09/10 06:30:25;;;;;;;;;;;;;;;25.11;48.00;100940.69;4975899;28;98955;-74
2021/09/10 06:32:53;;;;;;;;;;;;;;;25.18;47.51;100931.03;4975291;28;98423;-75
2021/09/10 06:35:19;;;;;;;;;;;;;;;25.23;47.53;100937.69;4972783;28;101497;-74
2021/09/10 06:37:46;;;;;;;;;;;;;;;25.33;47.61;100937.69;4959153;28;97431;-74
2021/09/10 06:40:13;;;;;;;;;;;;;;;25.47;47.05;100934.53;4978248;28;97095;-74
2021/09/10 06:42:41;;;;;;;;;;;;;;;25.59;47.10;100938.81;4968746;28;99534;-75
2021/09/10 06:45:08;;;;;;;;;;;;;;;25.53;47.40;100941.22;4971207;28;98920;-75
2021/09/10 06:47:35;;;;;;;;;;;;;;;25.67;46.85;100949.75;4971701;28;97134;-75
2021/09/10 06:50:07;;;;;;;;;;;;;;;25.75;46.96;100943.59;4968036;28;97417;-75
2021/09/10 06:52:33;;;;;;;;;;;;;;;25.76;46.79;100943.47;4966077;28;99023;-75
2021/09/10 06:55:04;;;;;;;;;;;;;;;26.41;45.00;100946.19;4963251;28;99121;-75
2021/09/10 06:57:32;;;;;;;;;;;;;;;26.52;45.11;100951.38;4969412;28;99731;-74
2021/09/10 07:00:06;;;;;;;;;;;;;;;26.38;45.22;100952.78;4970564;28;97067;-76
2021/09/10 07:02:33;;;;;;;;;;;;;;;26.39;45.31;100946.34;4966883;28;99576;-75
2021/09/10 07:05:02;;;;;;;;;;;;;;;26.32;45.81;100950.66;4967239;28;99326;-76
2021/09/10 07:07:51;;;;;;;;;;;;;;;26.28;45.76;100961.94;4962891;28;98106;-75
2021/09/10 07:10:18;;;;;;;;;;;;;;;26.41;45.80;100960.59;4964731;28;97327;-76
2021/09/10 07:12:45;;;;;;;;;;;;;;;26.52;45.65;100957.66;4963008;28;100046;-75
2021/09/10 07:15:11;;;;;;;;;;;;;;;26.43;45.78;100964.00;4966975;28;98108;-76
2021/09/10 07:17:37;;;;;;;;;;;;;;;26.55;45.78;100956.53;4966915;28;98829;-77
2021/09/10 07:20:04;;;;;;;;;;;;;;;26.46;45.94;100952.84;4967201;28;97006;-76
2021/09/10 07:22:32;;;;;;;;;;;;;;;26.69;45.55;100956.00;4964763;28;99173;-77
2021/09/10 07:24:58;;;;;;;;;;;;;;;26.79;45.53;100953.19;4965302;28;99404;-76
2021/09/10 07:27:25;;;;;;;;;;;;;;;26.96;45.20;100964.13;4969141;28;97196;-75
2021/09/10 07:29:51;;;;;;;;;;;;;;;26.95;45.16;100956.13;4967379;28;97155;-75
2021/09/10 07:32:21;;;;;;;;;;;;;;;27.10;44.62;100968.16;4966473;28;99338;-75
2021/09/10 07:34:48;;;;;;;;;;;;;;;27.15;44.60;100976.66;4965748;28;100152;-76
2021/09/10 07:37:14;;;;;;;;;;;;;;;27.19;44.91;100971.75;4961694;28;96881;-76
2021/09/10 07:39:42;;;;;;;;;;;;;;;27.22;44.59;100983.16;4962258;28;99930;-77
2021/09/10 07:42:08;;;;;;;;;;;;;;;27.31;44.57;100982.22;4963782;28;99536;-75
2021/09/10 07:44:34;;;;;;;;;;;;;;;27.32;44.50;100983.06;4967819;28;99224;-76
2021/09/10 07:47:01;;;;;;;;;;;;;;;27.35;44.75;100980.91;4964674;28;96999;-76
2021/09/10 07:49:27;;;;;;;;;;;;;;;27.37;44.59;100984.28;4961982;28;97316;-75
2021/09/10 07:51:53;;;;;;;;;;;;;;;27.48;44.27;100982.34;4963397;28;103444;-77
2021/09/10 07:54:20;;;;;;;;;;;;;;;27.50;44.25;100985.78;4966477;28;98138;-76
2021/09/10 07:56:48;;;;;;;;;;;;;;;27.54;44.35;100990.75;4968530;28;97887;-75
2021/09/10 07:59:14;;;;;;;;;;;;;;;27.74;44.05;100989.53;4966713;28;97374;-76
2021/09/10 08:01:41;;;;;;;;;;;;;;;28.02;43.49;100994.81;4967469;28;99160;-75
2021/09/10 08:04:07;;;;;;;;;;;;;;;28.58;42.27;100983.38;4957005;28;100467;-76
2021/09/10 08:06:36;;;;;;;;;;;;;;;28.73;41.95;100989.03;4965605;28;98854;-76
2021/09/10 08:09:02;;;;;;;;;;;;;;;28.95;41.41;100979.44;4968907;28;97016;-76
2021/09/10 08:11:29;;;;;;;;;;;;;;;29.11;41.28;100984.88;4966012;28;98773;-73
2021/09/10 08:13:58;;;;;;;;;;;;;;;29.12;41.14;100989.31;4965118;28;99215;-77
2021/09/10 08:16:24;;;;;;;;;;;;;;;28.93;41.58;100988.59;4965479;28;98064;-76
2021/09/10 08:18:50;;;;;;;;;;;;;;;28.88;42.11;100987.41;4965445;28;98424;-75
2021/09/10 08:21:16;;;;;;;;;;;;;;;28.41;43.09;100987.06;4962028;28;98411;-77
2021/09/10 08:23:43;;;;;;;;;;;;;;;28.75;42.37;100989.75;4968392;28;98861;-75
2021/09/10 08:26:09;;;;;;;;;;;;;;;28.46;42.76;100990.13;4968014;28;97533;-77
2021/09/10 08:28:35;;;;;;;;;;;;;;;28.76;42.31;100984.13;4978015;28;97625;-76
2021/09/10 08:31:03;;;;;;;;;;;;;;;28.92;41.92;100988.75;4976180;28;98982;-75
2021/09/10 08:33:29;;;;;;;;;;;;;;;28.69;42.33;100984.91;4960960;28;99064;-75
2021/09/10 08:35:56;;;;;;;;;;;;;;;28.82;42.43;100979.88;4978583;28;97000;-75
2021/09/10 08:38:22;;;;;;;;;;;;;;;28.68;42.24;100989.53;4970128;28;97035;-78
2021/09/10 08:40:49;;;;;;;;;;;;;;;28.71;42.40;100994.63;4966866;28;97863;-77
2021/09/10 08:43:16;;;;;;;;;;;;;;;29.08;41.66;100987.94;4968183;28;100578;-77
2021/09/10 08:45:42;;;;;;;;;;;;;;;29.10;41.59;100988.59;4965163;28;96981;-77
2021/09/10 08:48:11;;;;;;;;;;;;;;;29.19;41.41;100984.88;4968641;28;97856;-76
2021/09/10 08:50:38;;;;;;;;;;;;;;;29.42;41.27;100999.53;4963763;28;99114;-78
2021/09/10 08:53:04;;;;;;;;;;;;;;;29.33;41.16;100984.22;4963432;28;99352;-75
2021/09/10 08:55:30;;;;;;;;;;;;;;;29.54;41.02;100991.88;4970158;28;96901;-77
2021/09/10 08:57:57;;;;;;;;;;;;;;;29.26;41.24;100994.06;4968558;28;97816;-74
2021/09/10 09:00:28;;;;;;;;;;;;;;;29.45;40.51;100987.47;4967111;28;102101;-75
2021/09/10 09:02:58;;;;;;;;;;;;;;;29.54;40.51;100992.72;4966062;28;100467;-75
2021/09/10 09:05:26;;;;;;;;;;;;;;;29.69;40.70;100996.47;4969717;28;96898;-74
2021/09/10 09:08:04;;;;;;;;;;;;;;;29.40;41.01;100993.44;4971364;28;96935;-76
2021/09/10 09:10:48;;;;;;;;;;;;;;;29.76;40.62;101001.22;4970002;28;99624;-76
2021/09/10 09:13:15;;;;;;;;;;;;;;;29.82;40.10;101004.09;4970691;28;98042;-77
2021/09/10 09:15:42;;;;;;;;;;;;;;;29.89;39.97;100999.66;4966647;28;97055;-76
2021/09/10 09:18:11;;;;;;;;;;;;;;;29.96;40.09;101000.72;4969197;28;98135;-75
2021/09/10 09:20:38;;;;;;;;;;;;;;;30.06;40.10;101006.81;4965030;28;98884;-77
2021/09/10 09:23:10;;;;;;;;;;;;;;;30.01;40.27;101001.03;4971941;28;99765;-77
2021/09/10 09:25:39;;;;;;;;;;;;;;;30.04;40.20;101000.69;4970577;28;97247;-78
2021/09/10 09:28:19;;;;;;;;;;;;;;;30.08;40.15;101002.03;4973384;28;98853;-80
2021/09/10 09:30:46;;;;;;;;;;;;;;;30.01;40.04;101000.19;4970761;28;99244;-78
2021/09/10 09:33:14;;;;;;;;;;;;;;;30.04;40.19;101010.75;4974522;28;100937;-77
2021/09/10 09:35:42;;;;;;;;;;;;;;;29.92;40.01;101003.97;4972521;28;97748;-78
2021/09/10 09:38:13;;;;;;;;;;;;;;;30.11;39.57;101011.75;4976616;28;98009;-78
2021/09/10 09:40:39;;;;;;;;;;;;;;;30.14;39.64;101010.53;4973073;28;102034;-77
2021/09/10 09:43:18;;;;;;;;;;;;;;;30.17;39.94;101010.19;4979500;28;97106;-78
2021/09/10 09:45:46;;;;;;;;;;;;;;;29.93;40.17;101016.56;4982287;28;96781;-77
2021/09/10 09:48:13;;;;;;;;;;;;;;;30.08;39.96;101012.09;4973056;28;96947;-77
2021/09/10 09:50:40;;;;;;;;;;;;;;;30.09;39.84;101011.91;4970912;28;99071;-77
2021/09/10 09:53:08;;;;;;;;;;;;;;;30.02;40.03;101010.06;4975383;28;98884;-76
2021/09/10 09:55:36;;;;;;;;;;;;;;;29.39;41.19;101007.22;4971670;28;97014;-76
2021/09/10 09:58:04;;;;;;;;;;;;;;;29.84;40.59;101009.38;4972174;28;100524;-76
2021/09/10 10:00:30;;;;;;;;;;;;;;;30.08;40.90;101017.53;4971346;28;98942;-76
2021/09/10 10:02:57;;;;;;;;;;;;;;;30.18;40.72;101009.19;4974763;28;100265;-77
2021/09/10 10:05:24;;;;;;;;;;;;;;;30.36;39.94;101018.81;4982834;28;96804;-78
2021/09/10 10:07:53;;;;;;;;;;;;;;;30.47;39.46;101012.97;4977645;28;96946;-78
2021/09/10 10:10:23;;;;;;;;;;;;;;;29.99;39.77;101018.59;4979819;28;99195;-79
2021/09/10 10:12:51;;;;;;;;;;;;;;;30.16;39.66;101013.94;4977334;28;100497;-77
2021/09/10 10:15:22;;;;;;;;;;;;;;;30.24;39.88;101012.06;4976160;28;96964;-77
2021/09/10 10:17:49;;;;;;;;;;;;;;;30.21;39.08;101017.00;4981426;28;96988;-79
2021/09/10 10:20:30;;;;;;;;;;;;;;;30.31;38.71;101015.78;4977922;28;100418;-77
2021/09/10 10:22:59;;;;;;;;;;;;;;;30.50;38.64;101014.53;4975669;28;98059;-78
2021/09/10 10:25:31;;;;;;;;;;;;;;;30.40;38.95;101014.69;4981414;28;97818;-78
2021/09/10 10:28:03;;;;;;;;;;;;;;;30.53;38.38;101014.16;4985359;28;96826;-78
2021/09/10 10:30:49;;;;;;;;;;;;;;;30.39;38.67;101014.91;4981245;28;97749;-77
2021/09/10 10:33:26;;;;;;;;;;;;;;;30.23;38.38;101004.91;4972506;28;101808;-77
2021/09/10 10:35:52;;;;;;;;;;;;;;;30.26;38.97;101006.44;4988011;28;97921;-78
2021/09/10 10:38:18;;;;;;;;;;;;;;;29.97;39.86;101004.28;4992350;28;96837;-78
2021/09/10 10:40:47;;;;;;;;;;;;;;;30.20;39.51;101010.69;4981432;28;98056;-77
2021/09/10 10:43:27;;;;;;;;;;;;;;;30.38;39.31;101008.59;4980342;28;100946;-77
2021/09/10 10:46:00;;;;;;;;;;;;;;;30.43;39.29;101000.72;4975241;28;96806;-77
2021/09/10 10:48:49;;;;;;;;;;;;;;;30.22;38.65;101002.34;4971602;28;97298;-78
2021/09/10 10:51:33;;;;;;;;;;;;;;;30.20;38.79;101004.38;4969886;28;99812;-77
2021/09/10 10:54:13;;;;;;;;;;;;;;;30.30;38.38;101000.44;4952622;28;98967;-77
2021/09/10 10:56:42;;;;;;;;;;;;;;;30.32;38.92;100995.69;4972415;28;96931;-77
2021/09/10 10:59:26;;;;;;;;;;;;;;;30.26;38.59;101000.97;4978268;28;96806;-77
2021/09/10 11:02:12;;;;;;;;;;;;;;;30.22;38.89;101003.19;4975553;28;97734;-77
2021/09/10 11:04:39;;;;;;;;;;;;;;;30.18;39.36;101001.00;4971978;28;98837;-77
2021/09/10 11:07:06;;;;;;;;;;;;;;;30.37;39.12;100995.13;4975547;28;96851;-78
2021/09/10 11:09:33;;;;;;;;;;;;;;;30.42;39.22;100998.19;4972177;28;97156;-77
2021/09/10 11:12:01;;;;;;;;;;;;;;;30.57;39.30;100996.44;4966382;28;99975;-76
2021/09/10 11:14:30;;;;;;;;;;;;;;;30.67;38.57;100985.28;4972137;28;98869;-77
2021/09/10 11:17:08;;;;;;;;;;;;;;;30.24;39.66;100987.53;4974020;28;98698;-77
2021/09/10 11:19:36;;;;;;;;;;;;;;;30.54;39.32;100987.75;4973684;28;96844;-78
2021/09/10 11:22:02;;;;;;;;;;;;;;;30.35;39.76;100980.81;4976777;28;98951;-78
2021/09/10 11:24:29;;;;;;;;;;;;;;;30.56;39.36;100981.09;4971064;28;101837;-77
2021/09/10 11:26:56;;;;;;;;;;;;;;;30.68;38.99;100981.53;4973785;28;96959;-77
2021/09/10 11:29:24;;;;;;;;;;;;;;;30.08;40.50;100976.66;4968561;28;97025;-76
2021/09/10 11:31:51;;;;;;;;;;;;;;;30.13;40.34;100981.59;4964013;28;99002;-78
2021/09/10 11:34:33;;;;;;;;;;;;;;;30.23;40.16;100976.78;4973836;28;99119;-78
2021/09/10 11:37:00;;;;;;;;;;;;;;;30.62;39.64;100977.66;4971602;28;97716;-78
2021/09/10 11:39:27;;;;;;;;;;;;;;;30.39;40.18;100965.84;4969404;28;97407;-76
2021/09/10 11:41:54;;;;;;;;;;;;;;;30.67;39.72;100971.66;4975101;28;97646;-79
2021/09/10 11:44:21;;;;;;;;;;;;;;;30.87;39.33;100970.16;4975214;28;98889;-78
2021/09/10 11:46:49;;;;;;;;;;;;;;;30.94;38.99;100976.59;4970837;28;96972;-79
2021/09/10 11:49:16;;;;;;;;;;;;;;;30.56;40.02;100969.34;4973655;28;97931;-78
2021/09/10 11:52:08;;;;;;;;;;;;;;;31.01;39.29;100969.41;4975103;28;99307;-79
2021/09/10 11:57:19;;;;;;;;;;;;;;;31.12;38.27;100965.41;4952577;28;97105;-77
2021/09/10 11:59:46;;;;;;;;;;;;;;;31.27;37.91;100966.31;4965875;28;99582;-79
2021/09/10 12:02:14;;;;;;;;;;;;;;;31.19;38.60;100959.06;4971373;28;99705;-77
2021/09/10 12:04:40;;;;;;;;;;;;;;;31.19;38.09;100961.78;4963937;28;100633;-76
2021/09/10 12:07:08;;;;;;;;;;;;;;;31.35;37.17;100958.06;4963528;28;97056;-77
2021/09/10 12:09:34;;;;;;;;;;;;;;;31.46;37.44;100957.63;4967450;28;97116;-77
2021/09/10 12:12:17;;;;;;;;;;;;;;;31.41;37.81;100951.03;4962226;28;97525;-75
2021/09/10 12:14:45;;;;;;;;;;;;;;;31.68;37.59;100961.38;4963711;28;100667;-76
2021/09/10 12:17:22;;;;;;;;;;;;;;;32.03;36.47;100951.63;4964285;28;97954;-77
2021/09/10 12:19:55;;;;;;;;;;;;;;;31.80;36.94;100948.94;4970861;28;98860;-78
2021/09/10 12:22:26;;;;;;;;;;;;;;;31.82;36.63;100949.63;4967318;28;99849;-77
2021/09/10 12:25:07;;;;;;;;;;;;;;;31.37;37.59;100944.25;4961572;28;98139;-78
2021/09/10 12:27:33;;;;;;;;;;;;;;;31.28;38.15;100947.03;4961680;28;97122;-77
2021/09/10 12:30:07;;;;;;;;;;;;;;;31.03;38.18;100942.78;4973998;28;96925;-77
2021/09/10 12:32:36;;;;;;;;;;;;;;;31.17;37.98;100936.56;4976473;28;99598;-78
2021/09/10 12:35:02;;;;;;;;;;;;;;;31.15;38.67;100940.50;4977868;28;97111;-77
2021/09/10 12:37:29;;;;;;;;;;;;;;;31.23;38.35;100946.75;4979928;28;98057;-78
2021/09/10 12:39:55;;;;;;;;;;;;;;;31.23;38.69;100938.56;4974722;28;98773;-77
2021/09/10 12:45:14;;;;;;;;;;;;;;;31.75;37.63;100931.44;4978913;28;97850;-77
2021/09/10 12:47:44;;;;;;;;;;;;;;;31.87;37.77;100947.16;4979248;28;97714;-79